sensor_id;sensor_type;location;lat;lon;timestamp;P1;durP1;ratioP1;P2;durP2;ratioP2
41875;SDS011;27555;50.808;4.402;2022-11-12T00:00:29;10.48;;;6.07;;
41875;SDS011;27555;50.808;4.402;2022-11-12T00:02:55;10.40;;;6.25;;
41875;SDS011;27555;50.808;4.402;2022-11-12T00:05:21;9.93;;;5.85;;
41875;SDS011;27555;50.808;4.402;2022-11-12T00:07:46;14.90;;;6.57;;
41875;SDS011;27555;50.808;4.402;2022-11-12T00:10:12;11.85;;;5.63;;
41875;SDS011;27555;50.808;4.402;2022-11-12T00:12:37;9.73;;;5.95;;
41875;SDS011;27555;50.808;4.402;2022-11-12T00:15:03;10.57;;;6.07;;
41875;SDS011;27555;50.808;4.402;2022-11-12T00:17:29;13.77;;;6.82;;
41875;SDS011;27555;50.808;4.402;2022-11-12T00:19:55;12.32;;;7.53;;
41875;SDS011;27555;50.808;4.402;2022-11-12T00:22:20;10.80;;;6.38;;
41875;SDS011;27555;50.808;4.402;2022-11-12T00:24:46;9.73;;;5.45;;
41875;SDS011;27555;50.808;4.402;2022-11-12T00:27:12;9.80;;;5.55;;
41875;SDS011;27555;50.808;4.402;2022-11-12T00:29:39;9.93;;;5.03;;
41875;SDS011;27555;50.808;4.402;2022-11-12T00:32:05;8.30;;;6.00;;
41875;SDS011;27555;50.808;4.402;2022-11-12T00:34:31;8.90;;;5.22;;
41875;SDS011;27555;50.808;4.402;2022-11-12T00:36:58;9.48;;;5.03;;
41875;SDS011;27555;50.808;4.402;2022-11-12T00:39:23;10.35;;;5.60;;
41875;SDS011;27555;50.808;4.402;2022-11-12T00:41:49;8.20;;;4.93;;
41875;SDS011;27555;50.808;4.402;2022-11-12T00:44:16;7.38;;;4.20;;
41875;SDS011;27555;50.808;4.402;2022-11-12T00:46:42;8.35;;;5.22;;
41875;SDS011;27555;50.808;4.402;2022-11-12T00:49:07;13.25;;;5.18;;
41875;SDS011;27555;50.808;4.402;2022-11-12T00:51:33;9.90;;;4.90;;
41875;SDS011;27555;50.808;4.402;2022-11-12T00:53:59;9.15;;;4.75;;
41875;SDS011;27555;50.808;4.402;2022-11-12T00:56:25;10.75;;;5.80;;
41875;SDS011;27555;50.808;4.402;2022-11-12T00:58:50;8.15;;;4.65;;
41875;SDS011;27555;50.808;4.402;2022-11-12T01:01:16;8.68;;;4.78;;
41875;SDS011;27555;50.808;4.402;2022-11-12T01:03:42;8.93;;;4.72;;
41875;SDS011;27555;50.808;4.402;2022-11-12T01:06:09;7.85;;;4.50;;
41875;SDS011;27555;50.808;4.402;2022-11-12T01:08:37;11.15;;;5.40;;
41875;SDS011;27555;50.808;4.402;2022-11-12T01:11:09;11.20;;;5.95;;
41875;SDS011;27555;50.808;4.402;2022-11-12T01:13:36;7.85;;;4.78;;
41875;SDS011;27555;50.808;4.402;2022-11-12T01:16:06;11.05;;;6.10;;
41875;SDS011;27555;50.808;4.402;2022-11-12T01:18:32;8.48;;;5.07;;
41875;SDS011;27555;50.808;4.402;2022-11-12T01:21:03;15.35;;;6.05;;
41875;SDS011;27555;50.808;4.402;2022-11-12T01:23:36;8.80;;;5.18;;
41875;SDS011;27555;50.808;4.402;2022-11-12T01:26:07;8.15;;;4.57;;
41875;SDS011;27555;50.808;4.402;2022-11-12T01:28:34;11.00;;;5.03;;
41875;SDS011;27555;50.808;4.402;2022-11-12T01:33:38;9.18;;;5.18;;
41875;SDS011;27555;50.808;4.402;2022-11-12T01:36:05;8.23;;;4.93;;
41875;SDS011;27555;50.808;4.402;2022-11-12T01:38:33;6.38;;;4.18;;
41875;SDS011;27555;50.808;4.402;2022-11-12T01:41:03;10.00;;;4.72;;
41875;SDS011;27555;50.808;4.402;2022-11-12T01:43:30;9.27;;;4.45;;
41875;SDS011;27555;50.808;4.402;2022-11-12T01:45:55;7.13;;;4.53;;
41875;SDS011;27555;50.808;4.402;2022-11-12T01:48:30;5.93;;;3.95;;
41875;SDS011;27555;50.808;4.402;2022-11-12T01:50:58;7.10;;;4.45;;
41875;SDS011;27555;50.808;4.402;2022-11-12T01:53:27;7.13;;;4.75;;
41875;SDS011;27555;50.808;4.402;2022-11-12T01:55:58;5.72;;;4.15;;
41875;SDS011;27555;50.808;4.402;2022-11-12T01:58:26;6.88;;;4.25;;
41875;SDS011;27555;50.808;4.402;2022-11-12T02:00:55;5.35;;;3.83;;
41875;SDS011;27555;50.808;4.402;2022-11-12T02:03:22;7.32;;;5.35;;
41875;SDS011;27555;50.808;4.402;2022-11-12T02:05:50;9.77;;;4.97;;
41875;SDS011;27555;50.808;4.402;2022-11-12T02:08:20;6.82;;;4.40;;
41875;SDS011;27555;50.808;4.402;2022-11-12T02:10:48;7.45;;;4.20;;
41875;SDS011;27555;50.808;4.402;2022-11-12T02:13:14;5.60;;;4.10;;
41875;SDS011;27555;50.808;4.402;2022-11-12T02:15:59;8.43;;;4.00;;
41875;SDS011;27555;50.808;4.402;2022-11-12T02:18:26;6.40;;;4.40;;
41875;SDS011;27555;50.808;4.402;2022-11-12T02:20:52;8.65;;;4.68;;
41875;SDS011;27555;50.808;4.402;2022-11-12T02:23:19;8.13;;;4.28;;
41875;SDS011;27555;50.808;4.402;2022-11-12T02:25:45;7.05;;;4.03;;
41875;SDS011;27555;50.808;4.402;2022-11-12T02:28:10;7.10;;;4.35;;
41875;SDS011;27555;50.808;4.402;2022-11-12T02:30:41;8.70;;;4.97;;
41875;SDS011;27555;50.808;4.402;2022-11-12T02:33:11;6.88;;;4.35;;
41875;SDS011;27555;50.808;4.402;2022-11-12T02:35:45;8.27;;;4.65;;
41875;SDS011;27555;50.808;4.402;2022-11-12T02:38:11;5.75;;;3.90;;
41875;SDS011;27555;50.808;4.402;2022-11-12T02:40:37;8.45;;;4.43;;
41875;SDS011;27555;50.808;4.402;2022-11-12T02:43:03;6.60;;;4.45;;
41875;SDS011;27555;50.808;4.402;2022-11-12T02:45:29;7.57;;;4.95;;
41875;SDS011;27555;50.808;4.402;2022-11-12T02:47:56;9.15;;;3.90;;
41875;SDS011;27555;50.808;4.402;2022-11-12T02:50:22;5.05;;;3.80;;
41875;SDS011;27555;50.808;4.402;2022-11-12T02:52:48;9.23;;;4.28;;
41875;SDS011;27555;50.808;4.402;2022-11-12T02:55:14;5.43;;;3.65;;
41875;SDS011;27555;50.808;4.402;2022-11-12T02:57:40;6.35;;;4.13;;
41875;SDS011;27555;50.808;4.402;2022-11-12T03:00:07;8.65;;;3.90;;
41875;SDS011;27555;50.808;4.402;2022-11-12T03:02:35;7.28;;;4.00;;
41875;SDS011;27555;50.808;4.402;2022-11-12T03:05:07;5.93;;;3.78;;
41875;SDS011;27555;50.808;4.402;2022-11-12T03:07:37;7.30;;;3.95;;
41875;SDS011;27555;50.808;4.402;2022-11-12T03:10:03;8.70;;;4.35;;
41875;SDS011;27555;50.808;4.402;2022-11-12T03:12:30;6.68;;;3.70;;
41875;SDS011;27555;50.808;4.402;2022-11-12T03:14:57;6.43;;;4.07;;
41875;SDS011;27555;50.808;4.402;2022-11-12T03:17:24;8.70;;;4.60;;
41875;SDS011;27555;50.808;4.402;2022-11-12T03:19:50;5.95;;;4.25;;
41875;SDS011;27555;50.808;4.402;2022-11-12T03:22:15;7.90;;;4.53;;
41875;SDS011;27555;50.808;4.402;2022-11-12T03:24:41;6.40;;;4.07;;
41875;SDS011;27555;50.808;4.402;2022-11-12T03:27:07;5.57;;;4.03;;
41875;SDS011;27555;50.808;4.402;2022-11-12T03:29:32;7.57;;;4.10;;
41875;SDS011;27555;50.808;4.402;2022-11-12T03:31:58;9.85;;;5.13;;
41875;SDS011;27555;50.808;4.402;2022-11-12T03:34:23;6.38;;;4.75;;
41875;SDS011;27555;50.808;4.402;2022-11-12T03:36:52;8.35;;;4.20;;
41875;SDS011;27555;50.808;4.402;2022-11-12T03:39:17;5.20;;;3.65;;
41875;SDS011;27555;50.808;4.402;2022-11-12T03:41:43;5.95;;;4.03;;
41875;SDS011;27555;50.808;4.402;2022-11-12T03:44:08;5.15;;;4.03;;
41875;SDS011;27555;50.808;4.402;2022-11-12T03:46:34;6.32;;;3.95;;
41875;SDS011;27555;50.808;4.402;2022-11-12T03:48:59;7.78;;;3.67;;
41875;SDS011;27555;50.808;4.402;2022-11-12T03:51:27;8.73;;;4.05;;
41875;SDS011;27555;50.808;4.402;2022-11-12T03:53:52;6.13;;;4.03;;
41875;SDS011;27555;50.808;4.402;2022-11-12T03:56:18;6.78;;;3.95;;
41875;SDS011;27555;50.808;4.402;2022-11-12T03:58:47;5.63;;;3.90;;
41875;SDS011;27555;50.808;4.402;2022-11-12T04:01:13;8.02;;;4.25;;
41875;SDS011;27555;50.808;4.402;2022-11-12T04:03:38;7.43;;;3.90;;
41875;SDS011;27555;50.808;4.402;2022-11-12T04:06:04;8.73;;;4.20;;
41875;SDS011;27555;50.808;4.402;2022-11-12T04:08:49;7.25;;;3.58;;
41875;SDS011;27555;50.808;4.402;2022-11-12T04:11:15;7.80;;;4.25;;
41875;SDS011;27555;50.808;4.402;2022-11-12T04:13:42;8.18;;;3.72;;
41875;SDS011;27555;50.808;4.402;2022-11-12T04:16:13;5.72;;;3.53;;
41875;SDS011;27555;50.808;4.402;2022-11-12T04:18:59;4.82;;;3.55;;
41875;SDS011;27555;50.808;4.402;2022-11-12T04:24:16;6.10;;;3.97;;
41875;SDS011;27555;50.808;4.402;2022-11-12T04:27:01;6.53;;;4.22;;
41875;SDS011;27555;50.808;4.402;2022-11-12T04:29:27;6.82;;;3.97;;
41875;SDS011;27555;50.808;4.402;2022-11-12T04:32:11;5.47;;;3.65;;
41875;SDS011;27555;50.808;4.402;2022-11-12T04:34:37;4.75;;;3.42;;
41875;SDS011;27555;50.808;4.402;2022-11-12T04:37:03;7.82;;;3.42;;
41875;SDS011;27555;50.808;4.402;2022-11-12T04:39:30;6.90;;;4.28;;
41875;SDS011;27555;50.808;4.402;2022-11-12T04:41:56;8.30;;;4.20;;
41875;SDS011;27555;50.808;4.402;2022-11-12T04:44:40;6.93;;;4.05;;
41875;SDS011;27555;50.808;4.402;2022-11-12T04:47:23;6.82;;;3.92;;
41875;SDS011;27555;50.808;4.402;2022-11-12T04:49:51;6.40;;;3.67;;
41875;SDS011;27555;50.808;4.402;2022-11-12T04:52:17;5.97;;;3.63;;
41875;SDS011;27555;50.808;4.402;2022-11-12T04:54:42;5.97;;;4.15;;
41875;SDS011;27555;50.808;4.402;2022-11-12T04:57:08;4.75;;;3.28;;
41875;SDS011;27555;50.808;4.402;2022-11-12T04:59:34;5.15;;;3.55;;
41875;SDS011;27555;50.808;4.402;2022-11-12T05:01:59;6.47;;;4.20;;
41875;SDS011;27555;50.808;4.402;2022-11-12T05:04:25;6.55;;;3.35;;
41875;SDS011;27555;50.808;4.402;2022-11-12T05:06:53;8.82;;;3.40;;
41875;SDS011;27555;50.808;4.402;2022-11-12T05:09:23;3.90;;;2.90;;
41875;SDS011;27555;50.808;4.402;2022-11-12T05:11:51;5.10;;;3.50;;
41875;SDS011;27555;50.808;4.402;2022-11-12T05:14:17;5.38;;;3.67;;
41875;SDS011;27555;50.808;4.402;2022-11-12T05:16:43;5.22;;;3.85;;
41875;SDS011;27555;50.808;4.402;2022-11-12T05:19:09;5.35;;;3.70;;
41875;SDS011;27555;50.808;4.402;2022-11-12T05:21:34;4.32;;;3.25;;
41875;SDS011;27555;50.808;4.402;2022-11-12T05:24:19;5.68;;;3.45;;
41875;SDS011;27555;50.808;4.402;2022-11-12T05:26:45;5.20;;;3.42;;
41875;SDS011;27555;50.808;4.402;2022-11-12T05:29:10;5.95;;;3.45;;
41875;SDS011;27555;50.808;4.402;2022-11-12T05:31:36;6.00;;;3.50;;
41875;SDS011;27555;50.808;4.402;2022-11-12T05:34:01;4.65;;;3.20;;
41875;SDS011;27555;50.808;4.402;2022-11-12T05:36:27;5.53;;;3.63;;
41875;SDS011;27555;50.808;4.402;2022-11-12T05:38:54;9.65;;;4.07;;
41875;SDS011;27555;50.808;4.402;2022-11-12T05:41:19;7.38;;;4.07;;
41875;SDS011;27555;50.808;4.402;2022-11-12T05:43:45;6.45;;;4.13;;
41875;SDS011;27555;50.808;4.402;2022-11-12T05:46:11;7.43;;;4.28;;
41875;SDS011;27555;50.808;4.402;2022-11-12T05:48:36;5.90;;;3.83;;
41875;SDS011;27555;50.808;4.402;2022-11-12T05:51:02;9.70;;;4.70;;
41875;SDS011;27555;50.808;4.402;2022-11-12T05:53:28;6.95;;;4.57;;
41875;SDS011;27555;50.808;4.402;2022-11-12T05:55:59;9.13;;;5.03;;
41875;SDS011;27555;50.808;4.402;2022-11-12T05:58:29;6.28;;;4.00;;
41875;SDS011;27555;50.808;4.402;2022-11-12T06:00:55;7.72;;;3.95;;
41875;SDS011;27555;50.808;4.402;2022-11-12T06:03:21;6.95;;;4.45;;
41875;SDS011;27555;50.808;4.402;2022-11-12T06:05:47;7.55;;;3.92;;
41875;SDS011;27555;50.808;4.402;2022-11-12T06:08:12;6.57;;;3.78;;
41875;SDS011;27555;50.808;4.402;2022-11-12T06:10:40;6.47;;;3.90;;
41875;SDS011;27555;50.808;4.402;2022-11-12T06:13:06;6.20;;;4.05;;
41875;SDS011;27555;50.808;4.402;2022-11-12T06:15:32;5.38;;;3.75;;
41875;SDS011;27555;50.808;4.402;2022-11-12T06:17:57;5.43;;;3.85;;
41875;SDS011;27555;50.808;4.402;2022-11-12T06:20:23;7.15;;;4.00;;
41875;SDS011;27555;50.808;4.402;2022-11-12T06:22:49;7.32;;;4.07;;
41875;SDS011;27555;50.808;4.402;2022-11-12T06:25:15;7.75;;;3.92;;
41875;SDS011;27555;50.808;4.402;2022-11-12T06:27:41;7.55;;;4.00;;
41875;SDS011;27555;50.808;4.402;2022-11-12T06:30:07;9.55;;;3.13;;
41875;SDS011;27555;50.808;4.402;2022-11-12T06:32:35;6.25;;;4.03;;
41875;SDS011;27555;50.808;4.402;2022-11-12T06:35:01;8.10;;;4.30;;
41875;SDS011;27555;50.808;4.402;2022-11-12T06:37:26;7.22;;;3.13;;
41875;SDS011;27555;50.808;4.402;2022-11-12T06:39:52;8.27;;;3.85;;
41875;SDS011;27555;50.808;4.402;2022-11-12T06:42:17;8.82;;;3.90;;
41875;SDS011;27555;50.808;4.402;2022-11-12T06:44:43;8.60;;;3.17;;
41875;SDS011;27555;50.808;4.402;2022-11-12T06:47:09;8.23;;;3.75;;
41875;SDS011;27555;50.808;4.402;2022-11-12T06:49:35;5.25;;;3.35;;
41875;SDS011;27555;50.808;4.402;2022-11-12T06:52:01;5.68;;;3.72;;
41875;SDS011;27555;50.808;4.402;2022-11-12T06:54:27;5.22;;;3.15;;
41875;SDS011;27555;50.808;4.402;2022-11-12T06:56:54;9.45;;;3.78;;
41875;SDS011;27555;50.808;4.402;2022-11-12T06:59:20;9.18;;;4.07;;
41875;SDS011;27555;50.808;4.402;2022-11-12T07:01:45;6.88;;;3.50;;
41875;SDS011;27555;50.808;4.402;2022-11-12T07:04:11;6.82;;;3.85;;
41875;SDS011;27555;50.808;4.402;2022-11-12T07:06:36;6.68;;;3.67;;
41875;SDS011;27555;50.808;4.402;2022-11-12T07:09:03;10.10;;;3.42;;
41875;SDS011;27555;50.808;4.402;2022-11-12T07:11:29;12.82;;;3.67;;
41875;SDS011;27555;50.808;4.402;2022-11-12T07:13:55;6.18;;;4.05;;
41875;SDS011;27555;50.808;4.402;2022-11-12T07:16:20;6.03;;;3.72;;
41875;SDS011;27555;50.808;4.402;2022-11-12T07:18:46;9.25;;;4.40;;
41875;SDS011;27555;50.808;4.402;2022-11-12T07:21:14;7.40;;;3.97;;
41875;SDS011;27555;50.808;4.402;2022-11-12T07:23:42;9.05;;;4.10;;
41875;SDS011;27555;50.808;4.402;2022-11-12T07:26:12;7.35;;;4.07;;
41875;SDS011;27555;50.808;4.402;2022-11-12T07:28:39;6.95;;;3.70;;
41875;SDS011;27555;50.808;4.402;2022-11-12T07:31:06;7.40;;;3.67;;
41875;SDS011;27555;50.808;4.402;2022-11-12T07:33:34;8.88;;;3.83;;
41875;SDS011;27555;50.808;4.402;2022-11-12T07:38:34;6.88;;;3.80;;
41875;SDS011;27555;50.808;4.402;2022-11-12T07:43:34;6.63;;;3.97;;
41875;SDS011;27555;50.808;4.402;2022-11-12T07:46:07;13.38;;;4.93;;
41875;SDS011;27555;50.808;4.402;2022-11-12T07:48:34;7.47;;;4.38;;
41875;SDS011;27555;50.808;4.402;2022-11-12T07:53:27;24.75;;;5.20;;
41875;SDS011;27555;50.808;4.402;2022-11-12T07:55:54;7.93;;;4.22;;
41875;SDS011;27555;50.808;4.402;2022-11-12T07:58:29;10.10;;;4.97;;
41875;SDS011;27555;50.808;4.402;2022-11-12T08:00:56;8.50;;;4.60;;
41875;SDS011;27555;50.808;4.402;2022-11-12T08:03:22;9.25;;;4.47;;
41875;SDS011;27555;50.808;4.402;2022-11-12T08:05:48;7.35;;;4.72;;
41875;SDS011;27555;50.808;4.402;2022-11-12T08:08:14;6.40;;;4.13;;
41875;SDS011;27555;50.808;4.402;2022-11-12T08:10:39;6.47;;;3.60;;
41875;SDS011;27555;50.808;4.402;2022-11-12T08:13:05;7.78;;;4.22;;
41875;SDS011;27555;50.808;4.402;2022-11-12T08:15:31;8.77;;;3.88;;
41875;SDS011;27555;50.808;4.402;2022-11-12T08:17:57;8.38;;;4.88;;
41875;SDS011;27555;50.808;4.402;2022-11-12T08:20:23;8.63;;;4.32;;
41875;SDS011;27555;50.808;4.402;2022-11-12T08:22:48;4.80;;;3.75;;
41875;SDS011;27555;50.808;4.402;2022-11-12T08:25:14;9.30;;;4.28;;
41875;SDS011;27555;50.808;4.402;2022-11-12T08:27:40;9.63;;;5.28;;
41875;SDS011;27555;50.808;4.402;2022-11-12T08:30:06;9.98;;;4.90;;
41875;SDS011;27555;50.808;4.402;2022-11-12T08:32:32;13.38;;;5.65;;
41875;SDS011;27555;50.808;4.402;2022-11-12T08:34:58;10.23;;;5.25;;
41875;SDS011;27555;50.808;4.402;2022-11-12T08:37:23;9.57;;;5.28;;
41875;SDS011;27555;50.808;4.402;2022-11-12T08:39:49;8.35;;;5.20;;
41875;SDS011;27555;50.808;4.402;2022-11-12T08:42:14;9.70;;;5.35;;
41875;SDS011;27555;50.808;4.402;2022-11-12T08:44:40;7.75;;;5.10;;
41875;SDS011;27555;50.808;4.402;2022-11-12T08:47:05;9.70;;;5.13;;
41875;SDS011;27555;50.808;4.402;2022-11-12T08:49:31;9.05;;;5.03;;
41875;SDS011;27555;50.808;4.402;2022-11-12T08:51:56;9.20;;;5.07;;
41875;SDS011;27555;50.808;4.402;2022-11-12T08:54:22;9.77;;;5.13;;
41875;SDS011;27555;50.808;4.402;2022-11-12T08:56:48;9.55;;;5.90;;
41875;SDS011;27555;50.808;4.402;2022-11-12T08:59:14;11.38;;;5.50;;
41875;SDS011;27555;50.808;4.402;2022-11-12T09:01:40;10.40;;;5.10;;
41875;SDS011;27555;50.808;4.402;2022-11-12T09:04:06;8.73;;;5.38;;
41875;SDS011;27555;50.808;4.402;2022-11-12T09:06:31;7.03;;;4.82;;
41875;SDS011;27555;50.808;4.402;2022-11-12T09:08:57;14.32;;;5.05;;
41875;SDS011;27555;50.808;4.402;2022-11-12T09:11:22;15.85;;;6.10;;
41875;SDS011;27555;50.808;4.402;2022-11-12T09:13:48;10.18;;;4.45;;
41875;SDS011;27555;50.808;4.402;2022-11-12T09:16:16;3.28;;;2.35;;
41875;SDS011;27555;50.808;4.402;2022-11-12T09:18:42;4.45;;;1.88;;
41875;SDS011;27555;50.808;4.402;2022-11-12T09:21:09;5.47;;;1.85;;
41875;SDS011;27555;50.808;4.402;2022-11-12T09:23:36;4.30;;;2.00;;
41875;SDS011;27555;50.808;4.402;2022-11-12T09:26:02;2.38;;;1.73;;
41875;SDS011;27555;50.808;4.402;2022-11-12T09:28:29;2.30;;;1.27;;
41875;SDS011;27555;50.808;4.402;2022-11-12T09:30:55;5.97;;;1.55;;
41875;SDS011;27555;50.808;4.402;2022-11-12T09:33:25;2.08;;;1.60;;
41875;SDS011;27555;50.808;4.402;2022-11-12T09:35:54;3.47;;;1.95;;
41875;SDS011;27555;50.808;4.402;2022-11-12T09:38:20;4.78;;;1.90;;
41875;SDS011;27555;50.808;4.402;2022-11-12T09:43:35;2.85;;;1.60;;
41875;SDS011;27555;50.808;4.402;2022-11-12T09:46:07;4.00;;;1.77;;
41875;SDS011;27555;50.808;4.402;2022-11-12T09:48:42;4.82;;;2.00;;
41875;SDS011;27555;50.808;4.402;2022-11-12T09:51:16;1.63;;;1.23;;
41875;SDS011;27555;50.808;4.402;2022-11-12T09:53:56;2.67;;;1.65;;
41875;SDS011;27555;50.808;4.402;2022-11-12T09:56:23;2.95;;;1.88;;
41875;SDS011;27555;50.808;4.402;2022-11-12T09:58:50;3.85;;;1.45;;
41875;SDS011;27555;50.808;4.402;2022-11-12T10:07:02;3.80;;;2.35;;
41875;SDS011;27555;50.808;4.402;2022-11-12T10:09:40;4.22;;;2.42;;
41875;SDS011;27555;50.808;4.402;2022-11-12T10:12:20;3.40;;;2.00;;
41875;SDS011;27555;50.808;4.402;2022-11-12T10:17:55;2.63;;;1.83;;
41875;SDS011;27555;50.808;4.402;2022-11-12T10:20:33;2.97;;;1.65;;
41875;SDS011;27555;50.808;4.402;2022-11-12T10:25:42;5.75;;;2.63;;
41875;SDS011;27555;50.808;4.402;2022-11-12T10:28:15;4.20;;;2.20;;
41875;SDS011;27555;50.808;4.402;2022-11-12T10:30:58;7.80;;;3.03;;
41875;SDS011;27555;50.808;4.402;2022-11-12T10:33:30;3.83;;;1.92;;
41875;SDS011;27555;50.808;4.402;2022-11-12T10:35:57;5.72;;;2.55;;
41875;SDS011;27555;50.808;4.402;2022-11-12T10:41:16;3.47;;;1.92;;
41875;SDS011;27555;50.808;4.402;2022-11-12T10:44:26;3.13;;;2.03;;
41875;SDS011;27555;50.808;4.402;2022-11-12T10:46:38;7.75;;;2.10;;
41875;SDS011;27555;50.808;4.402;2022-11-12T10:49:05;4.50;;;1.92;;
41875;SDS011;27555;50.808;4.402;2022-11-12T10:51:55;4.28;;;2.08;;
41875;SDS011;27555;50.808;4.402;2022-11-12T10:54:29;3.33;;;1.88;;
41875;SDS011;27555;50.808;4.402;2022-11-12T11:00:05;4.05;;;2.33;;
41875;SDS011;27555;50.808;4.402;2022-11-12T11:02:37;2.92;;;2.00;;
41875;SDS011;27555;50.808;4.402;2022-11-12T11:07:58;3.15;;;1.95;;
41875;SDS011;27555;50.808;4.402;2022-11-12T11:10:27;4.57;;;2.13;;
41875;SDS011;27555;50.808;4.402;2022-11-12T11:13:07;5.05;;;2.45;;
41875;SDS011;27555;50.808;4.402;2022-11-12T11:18:00;4.97;;;1.95;;
41875;SDS011;27555;50.808;4.402;2022-11-12T11:20:45;4.85;;;1.73;;
41875;SDS011;27555;50.808;4.402;2022-11-12T11:23:21;5.32;;;2.13;;
41875;SDS011;27555;50.808;4.402;2022-11-12T11:25:54;4.97;;;2.05;;
41875;SDS011;27555;50.808;4.402;2022-11-12T11:36:58;3.50;;;2.00;;
41875;SDS011;27555;50.808;4.402;2022-11-12T11:47:37;5.05;;;2.50;;
41875;SDS011;27555;50.808;4.402;2022-11-12T11:50:22;5.57;;;2.30;;
41875;SDS011;27555;50.808;4.402;2022-11-12T11:55:47;9.10;;;2.90;;
41875;SDS011;27555;50.808;4.402;2022-11-12T12:09:34;3.47;;;2.17;;
41875;SDS011;27555;50.808;4.402;2022-11-12T12:18:36;4.68;;;1.92;;
41875;SDS011;27555;50.808;4.402;2022-11-12T12:20:53;4.07;;;2.22;;
41875;SDS011;27555;50.808;4.402;2022-11-12T12:23:32;5.80;;;2.20;;
41875;SDS011;27555;50.808;4.402;2022-11-12T12:26:05;2.58;;;2.03;;
41875;SDS011;27555;50.808;4.402;2022-11-12T12:28:44;2.45;;;1.63;;
41875;SDS011;27555;50.808;4.402;2022-11-12T12:31:26;4.10;;;2.65;;
41875;SDS011;27555;50.808;4.402;2022-11-12T12:34:04;4.53;;;2.65;;
41875;SDS011;27555;50.808;4.402;2022-11-12T12:36:54;6.60;;;2.63;;
41875;SDS011;27555;50.808;4.402;2022-11-12T12:42:19;6.38;;;2.45;;
41875;SDS011;27555;50.808;4.402;2022-11-12T12:45:23;5.10;;;2.70;;
41875;SDS011;27555;50.808;4.402;2022-11-12T12:47:54;3.55;;;1.70;;
41875;SDS011;27555;50.808;4.402;2022-11-12T12:50:21;5.57;;;1.90;;
41875;SDS011;27555;50.808;4.402;2022-11-12T12:53:01;3.28;;;2.00;;
41875;SDS011;27555;50.808;4.402;2022-11-12T12:55:39;5.63;;;2.63;;
41875;SDS011;27555;50.808;4.402;2022-11-12T12:58:14;5.40;;;2.33;;
41875;SDS011;27555;50.808;4.402;2022-11-12T13:00:48;6.15;;;2.58;;
41875;SDS011;27555;50.808;4.402;2022-11-12T13:06:15;5.07;;;2.45;;
41875;SDS011;27555;50.808;4.402;2022-11-12T13:09:01;4.80;;;2.75;;
41875;SDS011;27555;50.808;4.402;2022-11-12T13:19:26;4.35;;;2.38;;
41875;SDS011;27555;50.808;4.402;2022-11-12T13:38:09;7.22;;;2.40;;
41875;SDS011;27555;50.808;4.402;2022-11-12T13:40:54;5.45;;;2.10;;
41875;SDS011;27555;50.808;4.402;2022-11-12T13:43:43;4.03;;;2.30;;
41875;SDS011;27555;50.808;4.402;2022-11-12T13:49:02;8.10;;;2.33;;
41875;SDS011;27555;50.808;4.402;2022-11-12T13:51:43;3.67;;;2.00;;
41875;SDS011;27555;50.808;4.402;2022-11-12T13:54:27;6.80;;;2.15;;
41875;SDS011;27555;50.808;4.402;2022-11-12T13:57:11;12.07;;;1.95;;
41875;SDS011;27555;50.808;4.402;2022-11-12T14:00:07;4.00;;;2.10;;
41875;SDS011;27555;50.808;4.402;2022-11-12T14:02:45;3.83;;;1.73;;
41875;SDS011;27555;50.808;4.402;2022-11-12T14:05:29;7.30;;;2.35;;
41875;SDS011;27555;50.808;4.402;2022-11-12T14:08:04;3.75;;;1.80;;
41875;SDS011;27555;50.808;4.402;2022-11-12T14:20:22;5.40;;;2.13;;
41875;SDS011;27555;50.808;4.402;2022-11-12T14:23:13;5.13;;;2.33;;
41875;SDS011;27555;50.808;4.402;2022-11-12T14:25:45;4.05;;;1.88;;
41875;SDS011;27555;50.808;4.402;2022-11-12T14:28:25;3.63;;;1.58;;
41875;SDS011;27555;50.808;4.402;2022-11-12T14:30:52;4.03;;;2.20;;
41875;SDS011;27555;50.808;4.402;2022-11-12T14:33:21;7.65;;;2.08;;
41875;SDS011;27555;50.808;4.402;2022-11-12T14:35:50;4.35;;;1.90;;
41875;SDS011;27555;50.808;4.402;2022-11-12T14:38:20;5.47;;;2.28;;
41875;SDS011;27555;50.808;4.402;2022-11-12T14:40:55;4.90;;;1.98;;
41875;SDS011;27555;50.808;4.402;2022-11-12T14:46:01;7.68;;;2.30;;
41875;SDS011;27555;50.808;4.402;2022-11-12T14:48:29;3.75;;;2.05;;
41875;SDS011;27555;50.808;4.402;2022-11-12T14:51:12;12.18;;;4.10;;
41875;SDS011;27555;50.808;4.402;2022-11-12T14:53:46;11.77;;;2.67;;
41875;SDS011;27555;50.808;4.402;2022-11-12T14:58:54;10.80;;;3.17;;
41875;SDS011;27555;50.808;4.402;2022-11-12T15:01:28;4.40;;;2.10;;
41875;SDS011;27555;50.808;4.402;2022-11-12T15:04:03;7.43;;;2.30;;
41875;SDS011;27555;50.808;4.402;2022-11-12T15:06:40;5.45;;;2.13;;
41875;SDS011;27555;50.808;4.402;2022-11-12T15:09:17;7.55;;;2.78;;
41875;SDS011;27555;50.808;4.402;2022-11-12T15:11:55;7.05;;;3.00;;
41875;SDS011;27555;50.808;4.402;2022-11-12T15:14:21;7.28;;;2.65;;
41875;SDS011;27555;50.808;4.402;2022-11-12T15:16:48;4.38;;;2.45;;
41875;SDS011;27555;50.808;4.402;2022-11-12T15:19:17;5.97;;;2.83;;
41875;SDS011;27555;50.808;4.402;2022-11-12T15:21:47;6.55;;;2.75;;
41875;SDS011;27555;50.808;4.402;2022-11-12T15:24:18;17.75;;;3.53;;
41875;SDS011;27555;50.808;4.402;2022-11-12T15:26:54;8.10;;;2.53;;
41875;SDS011;27555;50.808;4.402;2022-11-12T15:31:59;14.57;;;3.47;;
41875;SDS011;27555;50.808;4.402;2022-11-12T15:39:43;7.68;;;3.42;;
41875;SDS011;27555;50.808;4.402;2022-11-12T15:42:15;13.30;;;3.67;;
41875;SDS011;27555;50.808;4.402;2022-11-12T15:44:46;6.47;;;2.70;;
41875;SDS011;27555;50.808;4.402;2022-11-12T15:47:18;7.80;;;2.78;;
41875;SDS011;27555;50.808;4.402;2022-11-12T15:49:46;9.98;;;3.05;;
41875;SDS011;27555;50.808;4.402;2022-11-12T15:52:15;7.25;;;3.00;;
41875;SDS011;27555;50.808;4.402;2022-11-12T15:54:41;6.53;;;3.08;;
41875;SDS011;27555;50.808;4.402;2022-11-12T15:57:16;7.65;;;3.45;;
41875;SDS011;27555;50.808;4.402;2022-11-12T15:59:46;8.48;;;2.92;;
41875;SDS011;27555;50.808;4.402;2022-11-12T16:02:21;7.43;;;3.05;;
41875;SDS011;27555;50.808;4.402;2022-11-12T16:04:47;11.13;;;3.75;;
41875;SDS011;27555;50.808;4.402;2022-11-12T16:07:13;4.78;;;2.88;;
41875;SDS011;27555;50.808;4.402;2022-11-12T16:09:38;8.85;;;3.75;;
41875;SDS011;27555;50.808;4.402;2022-11-12T16:12:04;8.98;;;3.67;;
41875;SDS011;27555;50.808;4.402;2022-11-12T16:14:30;8.43;;;3.33;;
41875;SDS011;27555;50.808;4.402;2022-11-12T16:16:55;7.88;;;3.40;;
41875;SDS011;27555;50.808;4.402;2022-11-12T16:19:21;10.38;;;3.60;;
41875;SDS011;27555;50.808;4.402;2022-11-12T16:21:46;19.38;;;4.55;;
41875;SDS011;27555;50.808;4.402;2022-11-12T16:24:12;16.08;;;4.80;;
41875;SDS011;27555;50.808;4.402;2022-11-12T16:26:38;11.63;;;5.53;;
41875;SDS011;27555;50.808;4.402;2022-11-12T16:29:11;11.07;;;4.57;;
41875;SDS011;27555;50.808;4.402;2022-11-12T16:31:39;15.05;;;4.90;;
41875;SDS011;27555;50.808;4.402;2022-11-12T16:34:06;16.15;;;4.60;;
41875;SDS011;27555;50.808;4.402;2022-11-12T16:36:32;10.00;;;4.75;;
41875;SDS011;27555;50.808;4.402;2022-11-12T16:38:57;9.80;;;4.72;;
41875;SDS011;27555;50.808;4.402;2022-11-12T16:41:23;13.13;;;4.72;;
41875;SDS011;27555;50.808;4.402;2022-11-12T16:43:49;10.80;;;4.78;;
41875;SDS011;27555;50.808;4.402;2022-11-12T16:46:26;13.43;;;4.82;;
41875;SDS011;27555;50.808;4.402;2022-11-12T16:48:54;19.48;;;7.63;;
41875;SDS011;27555;50.808;4.402;2022-11-12T16:51:20;15.57;;;6.50;;
41875;SDS011;27555;50.808;4.402;2022-11-12T16:53:46;16.70;;;5.53;;
41875;SDS011;27555;50.808;4.402;2022-11-12T16:56:20;16.25;;;6.75;;
41875;SDS011;27555;50.808;4.402;2022-11-12T16:58:46;14.68;;;7.07;;
41875;SDS011;27555;50.808;4.402;2022-11-12T17:01:13;14.63;;;6.57;;
41875;SDS011;27555;50.808;4.402;2022-11-12T17:03:50;14.32;;;7.65;;
41875;SDS011;27555;50.808;4.402;2022-11-12T17:06:18;17.77;;;8.45;;
41875;SDS011;27555;50.808;4.402;2022-11-12T17:08:44;15.70;;;7.05;;